createdAt,value
2023-09-01T00:03:19.200Z,0.82
2023-09-01T00:08:24.556Z,1.10
2023-09-01T00:13:31.354Z,1.10
2023-09-01T00:18:35.864Z,0.98
2023-09-01T00:23:41.660Z,1.20
2023-09-01T00:28:46.608Z,1.13
2023-09-01T00:33:50.059Z,1.10
2023-09-01T00:38:53.545Z,1.10
2023-09-01T00:43:59.425Z,1.27
2023-09-01T00:49:04.247Z,1.42
2023-09-01T00:54:08.851Z,0.88
2023-09-01T00:59:15.404Z,0.82
2023-09-01T01:04:23.023Z,0.85
2023-09-01T01:09:36.178Z,1.15
2023-09-01T01:14:48.154Z,1.45
2023-09-01T01:19:56.891Z,1.02
2023-09-01T01:25:01.787Z,0.82
2023-09-01T01:30:06.374Z,1.00
2023-09-01T01:35:20.115Z,0.80
2023-09-01T01:40:26.536Z,1.25
2023-09-01T01:45:30.644Z,1.00
2023-09-01T01:50:35.830Z,0.90
2023-09-01T01:55:41.887Z,0.90
2023-09-01T02:00:53.373Z,1.05
2023-09-01T02:05:57.311Z,0.80
2023-09-01T02:11:08.286Z,1.20
2023-09-01T02:16:12.794Z,0.82
2023-09-01T02:21:21.339Z,1.02
2023-09-01T02:26:35.624Z,0.80
2023-09-01T02:31:40.718Z,1.02
2023-09-01T02:36:49.448Z,1.08
2023-09-01T02:41:54.530Z,1.05
2023-09-01T02:46:58.724Z,0.95
2023-09-01T02:52:02.598Z,0.98
2023-09-01T02:57:08.656Z,0.90
2023-09-01T03:02:13.399Z,1.00
2023-09-01T03:07:17.914Z,0.80
2023-09-01T03:12:22.864Z,1.20
2023-09-01T03:17:26.654Z,0.88
2023-09-01T03:22:32.474Z,0.88
2023-09-01T07:09:28.369Z,0.50
2023-09-01T07:14:31.650Z,0.65
2023-09-01T07:19:35.002Z,0.70
2023-09-01T07:24:40.016Z,0.50
2023-09-01T07:29:43.790Z,0.40
2023-09-01T07:34:52.259Z,0.52
2023-09-01T07:39:57.087Z,0.65
2023-09-01T07:45:01.345Z,0.50
2023-09-01T07:50:06.445Z,0.40
2023-09-01T07:55:12.776Z,0.50
2023-09-01T08:00:19.475Z,0.50
2023-09-01T08:05:23.031Z,0.40
2023-09-01T08:10:27.810Z,0.57
2023-09-01T08:15:31.526Z,0.60
2023-09-01T08:20:35.001Z,0.50
2023-09-01T08:25:39.977Z,0.50
2023-09-01T08:30:44.897Z,0.32
2023-09-01T08:35:48.968Z,0.77
2023-09-01T08:41:02.236Z,0.95
2023-09-01T08:51:16.199Z,0.80
2023-09-01T08:56:22.168Z,0.68
2023-09-01T09:01:35.058Z,0.80
2023-09-01T09:06:41.358Z,0.50
2023-09-01T09:12:04.929Z,0.90
2023-09-01T09:17:08.348Z,0.90
2023-09-01T09:22:13.681Z,0.70
2023-09-01T09:27:21.937Z,0.73
2023-09-01T09:32:26.388Z,0.88
2023-09-01T09:37:29.820Z,0.77
2023-09-01T09:42:40.659Z,1.00
2023-09-01T09:47:44.446Z,0.80
2023-09-01T09:52:52.203Z,1.30
2023-09-01T09:58:05.483Z,0.77
2023-09-01T10:03:10.809Z,0.70
2023-09-01T10:08:15.935Z,0.90
2023-09-01T10:13:23.754Z,1.00
2023-09-01T10:18:30.603Z,0.80
2023-09-01T10:23:38.474Z,0.85
2023-09-01T10:28:57.802Z,1.00
2023-09-01T10:34:10.348Z,0.70
2023-09-01T10:39:27.498Z,0.80
2023-09-01T10:45:12.832Z,0.73
2023-09-01T10:50:18.332Z,0.73
2023-09-01T10:55:21.758Z,0.63
2023-09-01T11:00:31.243Z,0.60
2023-09-01T11:05:41.095Z,0.60
2023-09-01T11:10:46.101Z,0.70
2023-09-01T11:15:53.066Z,0.70
2023-09-01T11:20:58.944Z,0.70
2023-09-01T11:26:04.676Z,0.85
2023-09-01T11:31:09.812Z,0.55
2023-09-01T11:36:13.838Z,0.55
2023-09-01T11:41:19.826Z,0.60
2023-09-01T11:46:33.989Z,0.50
2023-09-01T11:51:39.910Z,0.70
2023-09-01T11:56:43.608Z,0.75
2023-09-01T12:01:48.789Z,0.68
2023-09-01T12:06:52.384Z,0.70
2023-09-01T12:11:56.362Z,0.60
2023-09-01T12:17:02.522Z,0.47
2023-09-01T12:22:06.949Z,0.57
2023-09-01T12:27:10.631Z,0.85
2023-09-01T12:32:15.816Z,0.63
2023-09-01T12:37:19.604Z,0.60
2023-09-01T12:42:23.068Z,0.57
2023-09-01T12:47:28.849Z,0.68
2023-09-01T12:52:32.220Z,0.50
2023-09-01T12:57:38.128Z,0.40
2023-09-01T13:02:43.708Z,0.80
2023-09-01T13:07:49.411Z,0.57
2023-09-01T13:12:52.852Z,0.47
2023-09-01T13:17:58.599Z,0.60
2023-09-01T13:23:02.086Z,0.57
2023-09-01T13:28:06.013Z,0.63
2023-09-01T13:33:11.476Z,0.70
2023-09-01T13:38:17.856Z,0.50
2023-09-01T13:43:22.343Z,0.63
2023-09-01T13:48:27.097Z,0.65
2023-09-01T13:53:30.699Z,0.60
2023-09-01T13:58:36.362Z,0.70
2023-09-01T14:03:43.998Z,0.65
2023-09-01T14:08:48.754Z,0.90
2023-09-01T14:13:58.785Z,0.60
2023-09-01T14:19:34.442Z,0.80
2023-09-01T14:24:40.760Z,1.00
2023-09-01T14:29:47.722Z,0.90
2023-09-01T14:34:52.665Z,0.70
2023-09-01T14:39:58.118Z,0.80
2023-09-01T14:45:02.617Z,0.63
2023-09-01T14:50:08.162Z,0.60
2023-09-01T14:55:11.772Z,1.00
2023-09-01T15:00:16.259Z,0.90
2023-09-01T15:05:20.962Z,0.80
2023-09-01T15:10:25.466Z,0.85
2023-09-01T15:15:28.960Z,0.80
2023-09-01T15:20:33.896Z,0.95
2023-09-01T15:25:38.952Z,0.90
2023-09-01T15:30:44.490Z,0.90
2023-09-01T15:36:00.729Z,0.85
2023-09-01T15:41:05.834Z,0.80
2023-09-01T15:46:11.253Z,1.52
2023-09-01T15:51:17.158Z,0.70
2023-09-01T15:56:20.482Z,1.63
2023-09-01T16:01:26.692Z,0.80
2023-09-01T16:06:35.543Z,0.73
2023-09-01T16:11:41.129Z,0.82
2023-09-01T16:16:45.793Z,0.85
2023-09-01T16:21:52.533Z,0.80
2023-09-01T16:26:57.837Z,0.77
2023-09-01T16:32:02.283Z,0.90
2023-09-01T16:37:07.181Z,0.85
2023-09-01T16:42:12.322Z,0.90
2023-09-01T16:47:17.012Z,0.82
2023-09-01T16:52:24.857Z,1.23
2023-09-01T16:57:28.284Z,0.85
2023-09-01T17:02:34.156Z,0.85
2023-09-01T17:07:38.980Z,1.10
2023-09-01T17:12:42.339Z,0.88
2023-09-01T17:17:45.953Z,0.93
2023-09-01T17:22:54.846Z,0.85
2023-09-01T17:27:59.302Z,0.75
2023-09-01T17:33:03.957Z,0.73
2023-09-01T17:38:09.124Z,0.90
2023-09-01T17:43:12.686Z,0.80
2023-09-01T17:48:16.084Z,0.95
2023-09-01T17:53:22.905Z,0.80
2023-09-01T17:58:26.392Z,0.98
2023-09-01T18:03:30.971Z,0.65
2023-09-01T18:08:36.942Z,0.90
2023-09-01T18:13:40.702Z,1.17
2023-09-01T18:18:44.078Z,0.85
2023-09-01T18:23:48.881Z,0.73
2023-09-01T18:28:52.428Z,0.70
2023-09-01T18:33:57.141Z,0.82
2023-09-01T18:39:07.251Z,0.80
2023-09-01T18:44:10.813Z,0.80
2023-09-01T18:49:16.955Z,0.70
2023-09-01T18:54:27.679Z,0.80
2023-09-01T18:59:33.150Z,0.82
2023-09-01T19:04:37.836Z,0.80
2023-09-01T19:09:46.962Z,1.08
2023-09-01T19:14:51.312Z,1.10
2023-09-01T19:19:58.582Z,0.90
2023-09-01T19:25:03.354Z,0.93
2023-09-01T19:30:11.164Z,0.90
2023-09-01T19:35:17.955Z,0.80
2023-09-01T19:40:36.910Z,0.95
2023-09-01T19:45:40.363Z,0.90
2023-09-01T19:50:47.120Z,1.02
2023-09-01T19:56:01.090Z,0.93
2023-09-01T20:01:07.227Z,1.00
2023-09-01T20:06:10.598Z,1.23
2023-09-01T20:11:19.147Z,1.00
2023-09-01T20:16:26.604Z,0.90
2023-09-01T20:21:31.047Z,1.40
2023-09-01T20:26:35.917Z,1.20
2023-09-01T20:31:39.192Z,1.40
2023-09-01T20:36:46.002Z,1.50
2023-09-01T20:41:50.843Z,1.33
2023-09-01T20:46:54.266Z,1.08
2023-09-01T20:52:07.066Z,1.33
2023-09-01T20:57:12.015Z,1.20
2023-09-01T21:02:15.471Z,1.45
2023-09-01T21:07:23.723Z,1.30
2023-09-01T21:12:35.510Z,1.58
2023-09-01T21:17:41.829Z,1.55
2023-09-01T21:22:54.255Z,1.20
2023-09-01T21:28:04.464Z,1.70
2023-09-01T21:33:11.808Z,1.35
2023-09-01T21:38:15.358Z,1.70
2023-09-01T21:43:25.387Z,1.33
2023-09-01T21:48:31.442Z,1.30
2023-09-01T21:53:40.137Z,1.45
2023-09-01T21:58:52.913Z,1.60
2023-09-01T22:03:57.378Z,1.52
2023-09-01T22:09:00.878Z,1.38
2023-09-01T22:14:05.569Z,1.30
2023-09-01T22:19:09.130Z,1.17
2023-09-01T22:24:13.968Z,1.20
2023-09-01T22:29:32.979Z,1.20
2023-09-01T22:34:39.022Z,1.35
2023-09-01T22:39:51.412Z,1.20
2023-09-01T22:44:59.062Z,1.30
2023-09-01T22:50:02.746Z,1.27
2023-09-01T22:55:06.889Z,1.30
2023-09-01T23:00:17.119Z,1.50
2023-09-01T23:05:34.833Z,2.03
2023-09-01T23:10:41.736Z,1.17
2023-09-01T23:15:46.708Z,1.30
2023-09-01T23:20:57.689Z,1.30
2023-09-01T23:26:02.206Z,1.63
2023-09-01T23:31:07.041Z,1.52
2023-09-01T23:36:14.681Z,1.60
2023-09-01T23:41:18.302Z,1.40
2023-09-01T23:46:23.197Z,1.40
2023-09-01T23:51:30.530Z,1.50
2023-09-01T23:56:33.957Z,1.80
